Time;durP1;ratioP1;P1;durP2;ratioP2;P2;SDS_P1;SDS_P2;PMS_P1;PMS_P2;Temp;Humidity;BMP_temperature;BMP_pressure;BME280_temperature;BME280_humidity;BME280_pressure;Samples;Min_cycle;Max_cycle;Signal;HPM_P1;HPM_P2
2022/04/25 00:02:08;;;;;;;14.07;6.28;;;;;;;;;;5077101;28;20017;-71
2022/04/25 00:04:36;;;;;;;10.98;5.97;;;;;;;;;;5075715;28;20047;-70
2022/04/25 00:07:02;;;;;;;18.38;5.70;;;;;;;;;;5071103;28;20095;-71
2022/04/25 00:09:28;;;;;;;9.70;5.65;;;;;;;;;;5074990;28;20181;-72
2022/04/25 00:11:54;;;;;;;13.60;5.68;;;;;;;;;;5075922;28;20189;-71
2022/04/25 00:14:21;;;;;;;12.32;5.22;;;;;;;;;;5074039;28;20105;-71
2022/04/25 00:16:47;;;;;;;12.82;7.53;;;;;;;;;;5073293;28;20051;-71
2022/04/25 00:19:13;;;;;;;14.18;5.00;;;;;;;;;;5075513;28;20028;-70
2022/04/25 00:21:39;;;;;;;10.10;4.85;;;;;;;;;;5073083;28;20047;-71
2022/04/25 00:24:05;;;;;;;9.05;5.63;;;;;;;;;;5074159;28;20377;-71
2022/04/25 00:26:31;;;;;;;9.55;4.30;;;;;;;;;;5075252;28;20504;-72
2022/04/25 00:28:58;;;;;;;10.73;4.57;;;;;;;;;;5071657;28;20231;-71
2022/04/25 00:31:24;;;;;;;10.57;4.35;;;;;;;;;;5075079;28;20032;-72
2022/04/25 00:33:50;;;;;;;13.27;4.28;;;;;;;;;;5076327;28;20032;-71
2022/04/25 00:36:16;;;;;;;11.40;4.50;;;;;;;;;;5072213;28;20043;-71
2022/04/25 00:38:42;;;;;;;6.38;4.53;;;;;;;;;;5075434;28;20029;-71
2022/04/25 00:41:08;;;;;;;9.93;4.18;;;;;;;;;;5072391;28;20048;-72
2022/04/25 00:43:34;;;;;;;13.85;5.65;;;;;;;;;;5074650;28;20036;-70
2022/04/25 00:46:01;;;;;;;14.65;5.55;;;;;;;;;;5074136;28;20017;-71
2022/04/25 00:48:27;;;;;;;7.00;4.57;;;;;;;;;;5072136;28;20315;-71
2022/04/25 00:50:53;;;;;;;10.07;4.78;;;;;;;;;;5072829;28;20064;-71
2022/04/25 00:53:19;;;;;;;16.42;4.93;;;;;;;;;;5069243;28;20120;-72
2022/04/25 00:55:45;;;;;;;9.63;4.72;;;;;;;;;;5073466;28;20028;-70
2022/04/25 00:58:13;;;;;;;12.32;4.70;;;;;;;;;;5072218;28;20032;-72
2022/04/25 01:00:39;;;;;;;7.63;4.30;;;;;;;;;;5074385;28;20021;-71
2022/04/25 01:03:06;;;;;;;8.43;4.22;;;;;;;;;;5074237;28;20107;-70
2022/04/25 01:05:32;;;;;;;13.15;4.22;;;;;;;;;;5072275;28;20043;-71
2022/04/25 01:07:59;;;;;;;11.38;5.10;;;;;;;;;;5073971;28;20024;-71
2022/04/25 01:10:25;;;;;;;10.52;4.80;;;;;;;;;;5069781;28;20033;-70
2022/04/25 01:12:51;;;;;;;9.57;4.40;;;;;;;;;;5071197;28;20044;-71
2022/04/25 01:15:17;;;;;;;12.32;5.32;;;;;;;;;;5073237;28;20037;-71
2022/04/25 01:17:43;;;;;;;7.07;4.25;;;;;;;;;;5071388;28;20024;-71
2022/04/25 01:20:10;;;;;;;12.93;4.43;;;;;;;;;;5074192;28;20036;-71
2022/04/25 01:22:41;;;;;;;16.65;5.57;;;;;;;;;;5074181;28;20123;-71
2022/04/25 01:27:52;;;;;;;11.90;5.60;;;;;;;;;;5069899;28;20109;-70
2022/04/25 01:30:18;;;;;;;10.27;4.75;;;;;;;;;;5071351;28;20044;-71
2022/04/25 01:32:44;;;;;;;12.98;4.70;;;;;;;;;;5074470;28;20455;-70
2022/04/25 01:35:10;;;;;;;9.35;4.80;;;;;;;;;;5074074;28;20028;-72
2022/04/25 01:37:36;;;;;;;10.10;5.47;;;;;;;;;;5073306;28;20059;-70
2022/04/25 01:40:03;;;;;;;10.75;5.13;;;;;;;;;;5076717;28;20028;-70
2022/04/25 01:42:29;;;;;;;8.98;5.72;;;;;;;;;;5069152;28;20039;-71
2022/04/25 01:44:55;;;;;;;9.38;5.28;;;;;;;;;;5076217;28;20064;-72
2022/04/25 01:47:21;;;;;;;13.55;5.30;;;;;;;;;;5075893;28;20111;-71
2022/04/25 01:49:47;;;;;;;12.07;6.03;;;;;;;;;;5070915;28;20097;-70
2022/04/25 01:52:16;;;;;;;9.98;5.68;;;;;;;;;;5081238;28;20128;-71
2022/04/25 01:54:43;;;;;;;11.20;5.32;;;;;;;;;;5076060;28;20035;-71
2022/04/25 01:57:09;;;;;;;11.23;5.03;;;;;;;;;;5075446;28;20078;-71
2022/04/25 01:59:35;;;;;;;9.60;5.25;;;;;;;;;;5075846;28;20486;-70
2022/04/25 02:02:02;;;;;;;10.43;5.60;;;;;;;;;;5075901;28;20025;-72
2022/04/25 02:04:29;;;;;;;14.70;6.55;;;;;;;;;;5075994;28;20047;-70
2022/04/25 02:06:55;;;;;;;12.00;6.38;;;;;;;;;;5081413;28;20095;-70
2022/04/25 02:09:22;;;;;;;10.65;5.80;;;;;;;;;;5077493;28;20081;-71
2022/04/25 02:11:48;;;;;;;16.58;5.63;;;;;;;;;;5077909;28;20071;-71
2022/04/25 02:14:14;;;;;;;12.25;5.78;;;;;;;;;;5073600;28;20066;-70
2022/04/25 02:16:40;;;;;;;15.77;5.38;;;;;;;;;;5077620;28;20033;-70
2022/04/25 02:19:07;;;;;;;11.68;5.40;;;;;;;;;;5074101;28;20620;-71
2022/04/25 02:21:33;;;;;;;13.50;5.68;;;;;;;;;;5077644;28;20107;-71
2022/04/25 02:23:59;;;;;;;6.03;4.78;;;;;;;;;;5071126;28;20103;-70
2022/04/25 02:26:25;;;;;;;9.68;5.13;;;;;;;;;;5076614;28;20152;-69
2022/04/25 02:28:55;;;;;;;10.68;5.10;;;;;;;;;;5080217;28;20112;-70
2022/04/25 02:31:22;;;;;;;13.75;5.95;;;;;;;;;;5073621;28;20155;-70
2022/04/25 02:33:48;;;;;;;14.63;5.43;;;;;;;;;;5076049;28;20036;-71
2022/04/25 02:36:14;;;;;;;9.15;4.90;;;;;;;;;;5074542;28;20088;-70
2022/04/25 02:38:41;;;;;;;12.77;5.43;;;;;;;;;;5078071;28;20071;-69
2022/04/25 02:41:10;;;;;;;13.25;4.93;;;;;;;;;;5075949;28;20461;-68
2022/04/25 02:43:39;;;;;;;12.10;4.65;;;;;;;;;;5093743;28;20028;-70
2022/04/25 02:46:06;;;;;;;8.00;4.30;;;;;;;;;;5076854;28;20412;-71
2022/04/25 02:48:33;;;;;;;11.52;4.75;;;;;;;;;;5078448;28;20036;-71
2022/04/25 02:50:59;;;;;;;8.30;5.07;;;;;;;;;;5075294;28;20486;-71
2022/04/25 02:53:25;;;;;;;9.85;4.88;;;;;;;;;;5073315;28;20029;-70
2022/04/25 02:55:53;;;;;;;12.05;4.30;;;;;;;;;;5075194;28;20059;-70
2022/04/25 02:58:21;;;;;;;11.05;4.50;;;;;;;;;;5074273;28;20054;-70
2022/04/25 03:00:51;;;;;;;11.63;4.97;;;;;;;;;;5073763;28;20025;-70
2022/04/25 03:03:18;;;;;;;10.38;4.10;;;;;;;;;;5077367;28;20052;-70
2022/04/25 03:05:45;;;;;;;9.43;3.95;;;;;;;;;;5073570;28;20146;-71
2022/04/25 03:08:16;;;;;;;8.52;4.32;;;;;;;;;;5078399;28;20036;-71
2022/04/25 03:10:43;;;;;;;13.43;5.00;;;;;;;;;;5081968;28;20024;-70
2022/04/25 03:13:09;;;;;;;10.57;4.20;;;;;;;;;;5078686;28;20045;-69
2022/04/25 03:15:38;;;;;;;9.10;4.38;;;;;;;;;;5076190;28;20138;-71
2022/04/25 03:18:08;;;;;;;11.63;4.68;;;;;;;;;;5076284;28;20025;-70
2022/04/25 03:20:34;;;;;;;13.90;4.75;;;;;;;;;;5078376;28;20088;-70
2022/04/25 03:23:01;;;;;;;9.98;5.32;;;;;;;;;;5078308;28;20036;-71
2022/04/25 03:25:28;;;;;;;7.78;4.72;;;;;;;;;;5092713;28;20032;-70
2022/04/25 03:27:54;;;;;;;8.35;4.85;;;;;;;;;;5076647;28;20023;-70
2022/04/25 03:30:21;;;;;;;11.93;4.57;;;;;;;;;;5078954;28;20113;-70
2022/04/25 03:32:48;;;;;;;8.35;4.57;;;;;;;;;;5075776;28;20036;-71
2022/04/25 03:35:14;;;;;;;14.77;5.13;;;;;;;;;;5078311;28;20062;-71
2022/04/25 03:37:41;;;;;;;7.35;4.60;;;;;;;;;;5077665;28;20073;-70
2022/04/25 03:40:08;;;;;;;13.18;4.55;;;;;;;;;;5079471;28;20138;-69
2022/04/25 03:42:34;;;;;;;7.47;4.38;;;;;;;;;;5078257;28;20104;-70
2022/04/25 03:45:00;;;;;;;14.20;5.35;;;;;;;;;;5079116;28;20290;-71
2022/04/25 03:47:29;;;;;;;10.65;4.63;;;;;;;;;;5078008;28;20040;-70
2022/04/25 03:49:56;;;;;;;9.25;4.90;;;;;;;;;;5076650;28;20036;-70
2022/04/25 03:52:23;;;;;;;11.07;5.28;;;;;;;;;;5075093;28;20115;-71
2022/04/25 03:57:34;;;;;;;12.10;4.75;;;;;;;;;;5077790;28;20111;-70
2022/04/25 04:00:00;;;;;;;10.77;5.07;;;;;;;;;;5077470;28;20095;-69
2022/04/25 04:02:26;;;;;;;8.68;4.45;;;;;;;;;;5077547;28;20370;-71
2022/04/25 04:04:52;;;;;;;7.93;4.50;;;;;;;;;;5078415;28;20055;-69
2022/04/25 04:07:18;;;;;;;8.23;4.55;;;;;;;;;;5077174;28;20054;-70
2022/04/25 04:09:50;;;;;;;9.80;6.22;;;;;;;;;;5077561;28;20361;-71
2022/04/25 04:12:17;;;;;;;9.52;5.10;;;;;;;;;;5074656;28;20025;-69
2022/04/25 04:14:44;;;;;;;12.07;5.43;;;;;;;;;;5078056;28;20056;-70
2022/04/25 04:17:10;;;;;;;14.20;5.30;;;;;;;;;;5091497;28;20112;-70
2022/04/25 04:19:37;;;;;;;9.57;5.05;;;;;;;;;;5076801;28;20405;-71
2022/04/25 04:22:04;;;;;;;9.10;4.72;;;;;;;;;;5075730;28;20071;-71
2022/04/25 04:24:34;;;;;;;10.75;4.85;;;;;;;;;;5078485;28;20025;-69
2022/04/25 04:27:04;;;;;;;7.20;4.60;;;;;;;;;;5076664;28;20051;-70
2022/04/25 04:29:34;;;;;;;13.80;5.35;;;;;;;;;;5078290;28;20071;-70
2022/04/25 04:32:07;;;;;;;8.63;5.00;;;;;;;;;;5074465;28;20105;-71
2022/04/25 04:34:34;;;;;;;23.05;6.57;;;;;;;;;;5074407;28;20115;-70
2022/04/25 04:37:00;;;;;;;8.25;5.32;;;;;;;;;;5077604;28;20027;-70
2022/04/25 04:39:26;;;;;;;11.52;5.57;;;;;;;;;;5076730;28;20051;-68
2022/04/25 04:41:52;;;;;;;10.07;5.20;;;;;;;;;;5076812;28;20032;-70
2022/04/25 04:44:18;;;;;;;15.93;5.18;;;;;;;;;;5074321;28;20028;-70
2022/04/25 04:46:44;;;;;;;11.00;5.05;;;;;;;;;;5076086;28;20059;-69
2022/04/25 04:49:10;;;;;;;8.60;5.47;;;;;;;;;;5076523;28;20033;-71
2022/04/25 04:51:37;;;;;;;9.52;4.93;;;;;;;;;;5076354;28;20119;-70
2022/04/25 04:54:03;;;;;;;10.38;4.82;;;;;;;;;;5077022;28;20073;-70
2022/04/25 04:56:29;;;;;;;11.93;5.82;;;;;;;;;;5074896;28;20050;-71
2022/04/25 04:58:56;;;;;;;11.02;4.75;;;;;;;;;;5074451;28;20032;-70
2022/04/25 05:01:22;;;;;;;11.30;5.00;;;;;;;;;;5075550;28;20020;-70
2022/04/25 05:03:50;;;;;;;12.00;5.38;;;;;;;;;;5072963;28;20051;-70
2022/04/25 05:06:16;;;;;;;10.10;5.57;;;;;;;;;;5076030;28;20028;-71
2022/04/25 05:08:43;;;;;;;11.57;5.05;;;;;;;;;;5078444;28;20111;-70
2022/04/25 05:11:09;;;;;;;9.52;5.10;;;;;;;;;;5075361;28;20033;-70
2022/04/25 05:13:36;;;;;;;13.70;5.80;;;;;;;;;;5076537;28;20063;-70
2022/04/25 05:16:02;;;;;;;8.48;5.18;;;;;;;;;;5074376;28;20063;-70
2022/04/25 05:18:32;;;;;;;12.05;5.55;;;;;;;;;;5074095;28;20033;-69
2022/04/25 05:20:58;;;;;;;9.13;4.70;;;;;;;;;;5075447;28;20024;-70
2022/04/25 05:23:25;;;;;;;10.30;4.80;;;;;;;;;;5077638;28;20049;-71
2022/04/25 05:25:51;;;;;;;11.02;5.18;;;;;;;;;;5075822;28;20043;-71
2022/04/25 05:28:17;;;;;;;11.85;5.10;;;;;;;;;;5077851;28;20062;-70
2022/04/25 05:30:44;;;;;;;9.45;5.68;;;;;;;;;;5074986;28;20151;-71
2022/04/25 05:33:10;;;;;;;11.13;5.35;;;;;;;;;;5076111;28;20025;-70
2022/04/25 05:35:37;;;;;;;11.60;5.20;;;;;;;;;;5076110;28;20073;-71
2022/04/25 05:38:06;;;;;;;11.80;4.70;;;;;;;;;;5073685;28;20021;-71
2022/04/25 05:40:32;;;;;;;10.00;5.47;;;;;;;;;;5076449;28;20040;-70
2022/04/25 05:42:59;;;;;;;8.45;4.25;;;;;;;;;;5072977;28;20020;-70
2022/04/25 05:45:26;;;;;;;11.18;5.07;;;;;;;;;;5076671;28;20028;-70
2022/04/25 05:47:56;;;;;;;17.23;7.50;;;;;;;;;;5074514;28;20017;-71
2022/04/25 05:53:08;;;;;;;11.93;5.43;;;;;;;;;;5077018;28;20260;-70
2022/04/25 05:55:34;;;;;;;10.23;5.00;;;;;;;;;;5075303;28;20094;-70
2022/04/25 05:58:04;;;;;;;9.45;5.25;;;;;;;;;;5074607;28;20028;-70
2022/04/25 06:00:34;;;;;;;6.97;5.05;;;;;;;;;;5081554;28;20044;-68
2022/04/25 06:03:01;;;;;;;10.50;5.10;;;;;;;;;;5073742;28;20121;-70
2022/04/25 06:05:27;;;;;;;18.48;5.13;;;;;;;;;;5072084;28;20021;-70
2022/04/25 06:07:53;;;;;;;10.25;5.45;;;;;;;;;;5076483;28;20047;-71
2022/04/25 06:10:21;;;;;;;11.18;5.18;;;;;;;;;;5073800;28;20029;-71
2022/04/25 06:12:48;;;;;;;8.73;4.57;;;;;;;;;;5079989;28;20413;-70
2022/04/25 06:15:20;;;;;;;9.45;4.50;;;;;;;;;;5075756;28;20037;-70
2022/04/25 06:17:46;;;;;;;9.75;4.57;;;;;;;;;;5076341;28;20040;-71
2022/04/25 06:20:12;;;;;;;10.57;5.03;;;;;;;;;;5076675;28;20039;-72
2022/04/25 06:22:39;;;;;;;10.60;5.00;;;;;;;;;;5076985;28;20035;-70
2022/04/25 06:25:05;;;;;;;11.88;4.85;;;;;;;;;;5070794;28;20044;-71
2022/04/25 06:27:31;;;;;;;12.43;4.50;;;;;;;;;;5074458;28;20037;-71
2022/04/25 06:29:58;;;;;;;9.10;5.10;;;;;;;;;;5078914;28;20024;-72
2022/04/25 06:32:24;;;;;;;9.60;4.68;;;;;;;;;;5075669;28;20033;-70
2022/04/25 06:34:51;;;;;;;10.68;5.95;;;;;;;;;;5080123;28;20037;-71
2022/04/25 06:37:17;;;;;;;12.32;6.60;;;;;;;;;;5077855;28;20032;-70
2022/04/25 06:39:43;;;;;;;14.05;4.70;;;;;;;;;;5080641;28;20576;-70
2022/04/25 06:42:12;;;;;;;9.48;4.63;;;;;;;;;;5077236;28;20029;-69
2022/04/25 06:44:38;;;;;;;13.68;5.35;;;;;;;;;;5081717;28;20048;-71
2022/04/25 06:47:05;;;;;;;14.43;5.22;;;;;;;;;;5074933;28;20032;-71
2022/04/25 06:49:31;;;;;;;8.32;4.80;;;;;;;;;;5082332;28;20235;-71
2022/04/25 06:51:58;;;;;;;7.82;4.72;;;;;;;;;;5073796;28;20084;-70
2022/04/25 06:54:25;;;;;;;14.98;5.00;;;;;;;;;;5077929;28;20025;-70
2022/04/25 06:56:51;;;;;;;13.63;4.65;;;;;;;;;;5079397;28;20075;-71
2022/04/25 06:59:19;;;;;;;10.63;4.65;;;;;;;;;;5083824;28;20049;-71
2022/04/25 07:01:45;;;;;;;10.68;5.28;;;;;;;;;;5078322;28;20040;-71
2022/04/25 07:04:14;;;;;;;11.20;4.72;;;;;;;;;;5081010;28;20052;-71
2022/04/25 07:06:41;;;;;;;10.00;4.53;;;;;;;;;;5079823;28;20020;-70
2022/04/25 07:09:08;;;;;;;10.73;4.22;;;;;;;;;;5075141;28;20509;-70
2022/04/25 07:11:34;;;;;;;15.93;5.75;;;;;;;;;;5073156;28;20040;-71
2022/04/25 07:14:04;;;;;;;9.63;4.13;;;;;;;;;;5075180;28;20123;-70
2022/04/25 07:16:30;;;;;;;13.13;4.13;;;;;;;;;;5073496;28;20035;-72
2022/04/25 07:18:57;;;;;;;6.60;4.85;;;;;;;;;;5078152;28;20111;-72
2022/04/25 07:29:38;;;;;;;9.65;5.25;;;;;;;;;;5083674;28;20063;-73
2022/04/25 07:32:04;;;;;;;8.90;4.20;;;;;;;;;;5085469;28;20124;-72
2022/04/25 07:34:31;;;;;;;8.85;4.25;;;;;;;;;;5081464;28;20319;-74
2022/04/25 07:36:57;;;;;;;6.68;3.60;;;;;;;;;;5069666;28;20035;-75
2022/04/25 07:39:23;;;;;;;11.65;3.90;;;;;;;;;;5072470;28;20532;-74
2022/04/25 07:41:50;;;;;;;8.10;3.92;;;;;;;;;;5083673;28;20058;-74
2022/04/25 07:44:16;;;;;;;6.03;3.72;;;;;;;;;;5087173;28;20096;-72
2022/04/25 07:46:46;;;;;;;11.30;3.58;;;;;;;;;;5081726;28;20119;-73
2022/04/25 07:49:13;;;;;;;7.22;3.08;;;;;;;;;;5081485;28;20032;-75
2022/04/25 07:51:40;;;;;;;7.57;3.20;;;;;;;;;;5078410;28;20032;-76
2022/04/25 07:54:06;;;;;;;5.78;3.35;;;;;;;;;;5079632;28;20036;-75
2022/04/25 07:56:33;;;;;;;12.43;3.33;;;;;;;;;;5079789;28;20109;-74
2022/04/25 07:59:09;;;;;;;9.45;3.80;;;;;;;;;;5084534;28;20027;-73
2022/04/25 08:01:47;;;;;;;7.43;3.15;;;;;;;;;;5097294;28;20044;-71
2022/04/25 08:04:13;;;;;;;8.23;3.30;;;;;;;;;;5078142;28;20025;-73
2022/04/25 08:06:40;;;;;;;5.93;3.30;;;;;;;;;;5081881;28;20036;-71
2022/04/25 08:09:06;;;;;;;6.32;2.60;;;;;;;;;;5078914;28;20032;-71
2022/04/25 08:11:32;;;;;;;5.15;2.78;;;;;;;;;;5075825;28;20032;-74
2022/04/25 08:19:31;;;;;;;6.93;3.05;;;;;;;;;;5081008;28;20050;-73
2022/04/25 08:21:58;;;;;;;8.55;2.90;;;;;;;;;;5082180;28;20056;-71
2022/04/25 08:24:24;;;;;;;6.82;3.00;;;;;;;;;;5080595;28;20050;-72
2022/04/25 08:26:50;;;;;;;6.05;2.88;;;;;;;;;;5086082;28;20047;-72
2022/04/25 08:29:16;;;;;;;9.20;3.10;;;;;;;;;;5079191;28;20024;-73
2022/04/25 08:31:42;;;;;;;7.28;2.80;;;;;;;;;;5081997;28;20040;-72
2022/04/25 08:34:09;;;;;;;7.15;3.17;;;;;;;;;;5079228;28;20152;-72
2022/04/25 08:36:35;;;;;;;6.20;3.42;;;;;;;;;;5085636;28;20335;-74
2022/04/25 08:39:02;;;;;;;7.90;3.35;;;;;;;;;;5082270;28;20150;-73
2022/04/25 08:41:30;;;;;;;6.90;2.92;;;;;;;;;;5083823;28;20028;-72
2022/04/25 08:43:56;;;;;;;6.00;2.90;;;;;;;;;;5097388;28;20028;-73
2022/04/25 08:46:23;;;;;;;6.38;3.15;;;;;;;;;;5081557;28;20545;-72
2022/04/25 08:48:52;;;;;;;5.75;3.45;;;;;;;;;;5077044;28;20146;-74
2022/04/25 08:51:20;;;;;;;8.82;3.35;;;;;;;;;;5072770;28;20205;-76
2022/04/25 08:53:46;;;;;;;4.25;2.63;;;;;;;;;;5068744;28;20135;-75
2022/04/25 08:56:14;;;;;;;6.93;3.08;;;;;;;;;;5074347;28;20937;-74
2022/04/25 08:58:41;;;;;;;7.72;3.00;;;;;;;;;;5067266;28;20111;-74
2022/04/25 09:01:09;;;;;;;10.05;3.40;;;;;;;;;;5069379;28;20117;-73
2022/04/25 09:03:35;;;;;;;7.15;2.85;;;;;;;;;;5067957;28;20065;-75
2022/04/25 09:06:03;;;;;;;6.13;2.90;;;;;;;;;;5065195;28;20051;-73
2022/04/25 09:08:29;;;;;;;6.68;3.92;;;;;;;;;;5063796;28;20392;-73
2022/04/25 09:12:09;;;;;;;7.70;2.90;;;;;;;;;;5065655;28;20032;-74
2022/04/25 09:13:44;;;;;;;4.82;3.22;;;;;;;;;;5065761;28;20060;-75
2022/04/25 09:16:14;;;;;;;5.90;3.25;;;;;;;;;;5065133;28;20025;-76
2022/04/25 09:18:41;;;;;;;6.72;2.92;;;;;;;;;;5067503;28;20248;-76
2022/04/25 09:21:07;;;;;;;7.90;4.10;;;;;;;;;;5068189;28;20032;-75
2022/04/25 09:23:34;;;;;;;6.50;3.45;;;;;;;;;;5070135;28;20032;-76
2022/04/25 09:26:09;;;;;;;5.07;3.33;;;;;;;;;;5072542;28;20036;-76
2022/04/25 09:28:46;;;;;;;4.00;2.63;;;;;;;;;;5079378;28;20477;-76
2022/04/25 09:31:13;;;;;;;6.15;2.97;;;;;;;;;;5079309;28;20020;-74
2022/04/25 09:33:40;;;;;;;8.50;2.70;;;;;;;;;;5067153;28;20036;-74
2022/04/25 09:36:06;;;;;;;4.25;2.97;;;;;;;;;;5077531;28;20055;-71
2022/04/25 09:38:36;;;;;;;6.43;2.78;;;;;;;;;;5082136;28;20036;-76
2022/04/25 09:41:03;;;;;;;7.40;2.80;;;;;;;;;;5084007;28;20020;-72
2022/04/25 09:43:30;;;;;;;5.40;2.90;;;;;;;;;;5082779;28;20044;-72
2022/04/25 09:46:04;;;;;;;9.43;3.92;;;;;;;;;;5081361;28;20024;-74
2022/04/25 09:48:30;;;;;;;4.50;3.35;;;;;;;;;;5079453;28;20052;-73
2022/04/25 09:51:00;;;;;;;3.75;2.42;;;;;;;;;;5076881;28;20040;-74
2022/04/25 09:53:46;;;;;;;5.32;2.50;;;;;;;;;;5080985;28;20124;-74
2022/04/25 09:56:17;;;;;;;3.47;2.50;;;;;;;;;;5077075;28;20027;-75
2022/04/25 09:58:44;;;;;;;4.38;2.60;;;;;;;;;;5076742;28;20039;-72
2022/04/25 10:01:14;;;;;;;3.65;2.65;;;;;;;;;;5078511;28;20120;-74
2022/04/25 10:03:41;;;;;;;5.25;2.60;;;;;;;;;;5075360;28;20056;-76
2022/04/25 10:06:07;;;;;;;6.13;2.63;;;;;;;;;;5068118;28;20060;-74
2022/04/25 10:08:35;;;;;;;5.38;3.17;;;;;;;;;;5084968;28;20105;-75
2022/04/25 10:11:05;;;;;;;4.97;2.90;;;;;;;;;;5070067;28;20543;-74
2022/04/25 10:13:32;;;;;;;4.60;2.83;;;;;;;;;;5072216;28;20093;-74
2022/04/25 10:15:58;;;;;;;8.32;2.85;;;;;;;;;;5067780;28;20046;-74
2022/04/25 10:18:26;;;;;;;7.72;2.70;;;;;;;;;;5075409;28;20166;-75
2022/04/25 10:20:52;;;;;;;6.45;2.60;;;;;;;;;;5079534;28;20394;-76
2022/04/25 10:23:18;;;;;;;6.38;3.05;;;;;;;;;;5069014;28;20129;-77
2022/04/25 10:25:56;;;;;;;5.78;3.13;;;;;;;;;;5089782;28;20624;-74
2022/04/25 10:28:35;;;;;;;4.05;2.78;;;;;;;;;;5083734;28;20359;-74
2022/04/25 10:31:03;;;;;;;6.05;2.65;;;;;;;;;;5068010;28;20082;-72
2022/04/25 10:33:48;;;;;;;6.50;2.90;;;;;;;;;;5070544;28;20163;-73
2022/04/25 10:36:32;;;;;;;6.38;2.90;;;;;;;;;;5072922;28;20035;-73
2022/04/25 10:39:12;;;;;;;4.32;2.40;;;;;;;;;;5072303;28;21125;-73
2022/04/25 10:44:29;;;;;;;6.10;4.35;;;;;;;;;;5082930;28;20095;-74
2022/04/25 10:47:05;;;;;;;3.22;2.22;;;;;;;;;;5079878;28;20059;-74
2022/04/25 10:49:38;;;;;;;3.03;2.53;;;;;;;;;;5080009;28;20088;-75
2022/04/25 10:52:08;;;;;;;7.57;2.83;;;;;;;;;;5076246;28;20024;-74
2022/04/25 10:54:48;;;;;;;4.68;3.03;;;;;;;;;;5078157;28;20033;-74
2022/04/25 10:57:15;;;;;;;3.67;2.90;;;;;;;;;;5097727;28;20035;-75
2022/04/25 10:59:41;;;;;;;5.95;3.20;;;;;;;;;;5078344;28;20035;-75
2022/04/25 11:02:40;;;;;;;5.10;2.63;;;;;;;;;;5074182;28;20024;-75
2022/04/25 11:05:12;;;;;;;4.20;2.60;;;;;;;;;;5038510;28;20532;-75
2022/04/25 11:07:40;;;;;;;3.88;2.45;;;;;;;;;;5081026;28;20074;-75
2022/04/25 11:10:06;;;;;;;5.65;2.70;;;;;;;;;;5085292;28;20047;-73
2022/04/25 11:12:51;;;;;;;9.75;3.95;;;;;;;;;;5083585;28;20066;-73
2022/04/25 11:15:37;;;;;;;3.38;2.60;;;;;;;;;;5085305;28;20047;-75
2022/04/25 11:18:43;;;;;;;5.03;3.15;;;;;;;;;;5084761;28;20031;-75
2022/04/25 11:21:16;;;;;;;5.25;3.00;;;;;;;;;;5083036;28;20074;-75
2022/04/25 11:23:45;;;;;;;4.93;2.95;;;;;;;;;;5084048;28;20039;-74
2022/04/25 11:26:36;;;;;;;5.18;2.55;;;;;;;;;;5083896;28;20103;-75
2022/04/25 11:29:09;;;;;;;6.70;3.00;;;;;;;;;;5073265;28;20064;-73
2022/04/25 11:31:37;;;;;;;5.60;2.60;;;;;;;;;;5082685;28;20071;-75
2022/04/25 11:34:05;;;;;;;7.53;3.45;;;;;;;;;;5084528;28;20580;-74
2022/04/25 11:36:31;;;;;;;3.00;2.55;;;;;;;;;;5084415;28;20032;-75
2022/04/25 11:41:46;;;;;;;3.53;2.70;;;;;;;;;;5076628;28;20039;-74
2022/04/25 11:44:12;;;;;;;4.68;2.67;;;;;;;;;;5079000;28;20414;-74
2022/04/25 11:46:39;;;;;;;5.38;3.55;;;;;;;;;;5077562;28;20486;-74
2022/04/25 11:49:09;;;;;;;5.60;3.60;;;;;;;;;;5080801;28;20138;-75
2022/04/25 11:51:37;;;;;;;3.65;2.65;;;;;;;;;;5079096;28;20096;-76
2022/04/25 11:54:05;;;;;;;6.22;2.75;;;;;;;;;;5083936;28;20046;-73
2022/04/25 11:56:32;;;;;;;5.53;3.10;;;;;;;;;;5087695;28;20028;-75
2022/04/25 11:58:58;;;;;;;3.97;2.47;;;;;;;;;;5081937;28;20102;-75
2022/04/25 12:01:37;;;;;;;2.95;2.65;;;;;;;;;;5080117;28;20032;-75
2022/04/25 12:04:15;;;;;;;6.18;3.03;;;;;;;;;;5081558;28;20028;-73
2022/04/25 12:06:53;;;;;;;4.38;2.53;;;;;;;;;;5078407;28;20043;-75
2022/04/25 12:17:41;;;;;;;4.47;2.35;;;;;;;;;;5081670;28;20056;-75
2022/04/25 12:20:09;;;;;;;5.40;2.40;;;;;;;;;;5072465;28;20088;-72
2022/04/25 12:22:36;;;;;;;3.55;2.65;;;;;;;;;;5061870;28;20048;-74
2022/04/25 12:25:12;;;;;;;5.90;2.70;;;;;;;;;;5072132;28;20044;-72
2022/04/25 12:27:38;;;;;;;6.20;3.10;;;;;;;;;;5097129;28;20020;-73
2022/04/25 12:33:08;;;;;;;3.03;2.28;;;;;;;;;;5059253;28;20043;-74
2022/04/25 12:35:36;;;;;;;6.30;2.50;;;;;;;;;;5087088;28;20116;-74
2022/04/25 12:38:02;;;;;;;3.90;2.80;;;;;;;;;;5061573;28;20035;-74
2022/04/25 12:40:29;;;;;;;4.38;2.38;;;;;;;;;;5062582;28;20056;-75
2022/04/25 12:42:55;;;;;;;4.45;3.05;;;;;;;;;;5069006;28;20043;-76
2022/04/25 12:45:24;;;;;;;8.40;2.70;;;;;;;;;;5066420;28;20262;-75
2022/04/25 12:48:00;;;;;;;6.20;2.50;;;;;;;;;;5072916;28;20058;-74
2022/04/25 12:50:42;;;;;;;8.07;3.15;;;;;;;;;;5082787;28;20062;-75
2022/04/25 12:53:09;;;;;;;4.53;2.95;;;;;;;;;;5087188;28;20188;-74
2022/04/25 12:55:47;;;;;;;5.20;2.42;;;;;;;;;;5095782;28;20032;-74
2022/04/25 12:58:14;;;;;;;3.03;2.50;;;;;;;;;;5082456;28;20071;-74
2022/04/25 13:00:41;;;;;;;3.10;2.35;;;;;;;;;;5072157;28;20028;-75
2022/04/25 13:03:08;;;;;;;6.10;2.85;;;;;;;;;;5069187;28;20036;-75
2022/04/25 13:05:35;;;;;;;4.30;2.30;;;;;;;;;;5090653;28;20679;-72
2022/04/25 13:08:01;;;;;;;5.22;2.72;;;;;;;;;;5079111;28;20043;-74
2022/04/25 13:10:27;;;;;;;7.28;2.53;;;;;;;;;;5077821;28;20040;-76
2022/04/25 13:12:54;;;;;;;3.20;2.30;;;;;;;;;;5082785;28;20044;-75
2022/04/25 13:15:29;;;;;;;4.65;2.58;;;;;;;;;;5081467;28;20037;-76
2022/04/25 13:17:55;;;;;;;7.03;2.63;;;;;;;;;;5083793;28;20558;-75
2022/04/25 13:20:23;;;;;;;2.65;2.25;;;;;;;;;;5084490;28;20048;-72
2022/04/25 13:22:50;;;;;;;2.85;2.28;;;;;;;;;;5082471;28;20099;-73
2022/04/25 13:25:18;;;;;;;2.47;2.20;;;;;;;;;;5098100;28;20678;-73
2022/04/25 13:27:45;;;;;;;5.93;2.60;;;;;;;;;;5079020;28;20028;-74
2022/04/25 13:30:13;;;;;;;3.25;2.28;;;;;;;;;;5072866;28;20040;-74
2022/04/25 13:32:39;;;;;;;3.33;2.33;;;;;;;;;;5077023;28;20044;-74
2022/04/25 13:35:06;;;;;;;3.38;2.80;;;;;;;;;;5080487;28;20118;-73
2022/04/25 13:37:32;;;;;;;5.55;2.63;;;;;;;;;;5086322;28;20136;-74
2022/04/25 13:40:02;;;;;;;3.38;2.30;;;;;;;;;;5088787;28;20445;-72
2022/04/25 13:42:28;;;;;;;4.40;2.53;;;;;;;;;;5087262;28;20052;-72
2022/04/25 13:44:54;;;;;;;3.33;2.45;;;;;;;;;;5079901;28;20056;-73
2022/04/25 13:47:21;;;;;;;4.18;2.50;;;;;;;;;;5086232;28;20025;-74
2022/04/25 13:49:47;;;;;;;5.63;2.30;;;;;;;;;;5085631;28;20028;-75
2022/04/25 13:52:14;;;;;;;3.40;2.60;;;;;;;;;;5084950;28;20538;-74
2022/04/25 13:54:40;;;;;;;4.63;2.80;;;;;;;;;;5083357;28;20155;-74
2022/04/25 13:57:09;;;;;;;5.30;3.45;;;;;;;;;;5084123;28;20073;-75
2022/04/25 13:59:35;;;;;;;3.20;2.47;;;;;;;;;;5083687;28;20047;-74
2022/04/25 14:03:05;;;;;;;5.40;3.10;;;;;;;;;;5088051;28;20651;-77
2022/04/25 14:04:47;;;;;;;2.88;2.30;;;;;;;;;;5075189;28;20032;-73
2022/04/25 14:07:13;;;;;;;4.65;2.78;;;;;;;;;;5077355;28;20408;-76
2022/04/25 14:09:40;;;;;;;2.97;2.50;;;;;;;;;;5077296;28;20028;-72
2022/04/25 14:12:06;;;;;;;3.83;2.53;;;;;;;;;;5080358;28;20032;-73
2022/04/25 14:14:32;;;;;;;5.10;3.05;;;;;;;;;;5078540;28;20524;-73
2022/04/25 14:17:00;;;;;;;5.78;2.30;;;;;;;;;;5079412;28;20037;-74
2022/04/25 14:19:26;;;;;;;6.50;2.63;;;;;;;;;;5074319;28;20488;-75
2022/04/25 14:21:53;;;;;;;3.55;2.47;;;;;;;;;;5085920;28;20025;-74
2022/04/25 14:24:20;;;;;;;6.95;3.22;;;;;;;;;;5087634;28;20043;-73
2022/04/25 14:26:48;;;;;;;5.70;2.92;;;;;;;;;;5083864;28;20036;-72
2022/04/25 14:29:15;;;;;;;8.13;2.80;;;;;;;;;;5085959;28;20031;-74
2022/04/25 14:31:41;;;;;;;5.32;3.08;;;;;;;;;;5088423;28;20344;-72
2022/04/25 14:34:07;;;;;;;4.75;2.42;;;;;;;;;;5086589;28;20097;-72
2022/04/25 14:36:33;;;;;;;6.03;3.15;;;;;;;;;;5084541;28;20149;-73
2022/04/25 14:38:59;;;;;;;3.42;2.40;;;;;;;;;;5082395;28;20445;-74
2022/04/25 14:41:27;;;;;;;4.03;2.60;;;;;;;;;;5088019;28;20028;-75
2022/04/25 14:43:54;;;;;;;4.50;2.60;;;;;;;;;;5084581;28;20315;-73
2022/04/25 14:46:20;;;;;;;4.32;2.97;;;;;;;;;;5083651;28;20024;-76
2022/04/25 14:48:46;;;;;;;7.38;3.03;;;;;;;;;;5083409;28;20035;-75
2022/04/25 14:56:42;;;;;;;5.40;2.60;;;;;;;;;;5083996;28;20059;-72
2022/04/25 14:59:08;;;;;;;4.15;2.95;;;;;;;;;;5086378;28;20044;-74
2022/04/25 15:01:34;;;;;;;3.88;2.70;;;;;;;;;;5083116;28;20046;-74
2022/04/25 15:04:00;;;;;;;4.40;2.47;;;;;;;;;;5079489;28;20029;-75
2022/04/25 15:06:26;;;;;;;5.13;2.70;;;;;;;;;;5082214;28;20040;-75
2022/04/25 15:08:52;;;;;;;4.18;2.92;;;;;;;;;;5080870;28;20024;-73
2022/04/25 15:11:18;;;;;;;3.42;2.45;;;;;;;;;;5082859;28;20080;-73
2022/04/25 15:13:44;;;;;;;6.05;2.90;;;;;;;;;;5085639;28;20040;-73
2022/04/25 15:16:14;;;;;;;4.97;2.45;;;;;;;;;;5082007;28;20036;-72
2022/04/25 15:18:40;;;;;;;4.45;2.50;;;;;;;;;;5076993;28;20934;-72
2022/04/25 15:21:06;;;;;;;4.97;3.08;;;;;;;;;;5081677;28;20024;-76
2022/04/25 15:23:32;;;;;;;4.97;2.90;;;;;;;;;;5080759;28;20097;-73
2022/04/25 15:25:58;;;;;;;6.55;2.90;;;;;;;;;;5076822;28;20028;-74
2022/04/25 15:28:24;;;;;;;4.97;3.05;;;;;;;;;;5079086;28;20032;-73